Portada
METAR-TAF:

METAR-TAF

Aeroports :

Kashgar, Xina

latitud: 39-28N, longitud: 075-59E, altitud: 1291 m

Observació

L'informe es va fer fa 16 minuts, a les 15:00 UTC
Vent 6 kt del Nord/Nord-Oest
Temperatura -2°C
Humitat 63%
Pressió 1022 hPa
Visibilitat: 6000 m

METAR: ZWSH 201500Z 33003MPS 6000 NSC M02/M08 Q1022 NOSIG

Hora: 23:16 (15:16 UTC)

Pronòstic

L'informe es va fer fa 6 hores i 13 minuts, a les 09:03 UTC
Pronòstic vàlid del 20 a les 12 UTC al 21 a les 12 UTC
Vent 10 kt del Nord
Visibilitat: 6000 m
Escasses núvols a una alçada de 4000 ft
Evolucionant progressivament
l' 21 a les 04 UTC al 21 a les 05 UTC
Vent 8 kt del Est/Nord-Est

TAF: ZWSH 200903Z 2012/2112 35005MPS 6000 FEW040 TX04/2109Z TNM07/2100Z BECMG 2104/2105 06004MPS

Observacions i pronòstics meteorològics de més de 4000 aeroports (METAR i TAF).

Les estacions disponibles són els punts grocs i vermells al mapa.

Posi el ratolí al punt desitjat per veure el nom de l'estació.

Feu clic per veure les observacions i els pronòstics meteorològics.

Per canviar el mapa: feu clic els botons verds amb una creu de color negre per apropar; al botó verd amb un guió per allunyar la imatge; o en les fletxes verdes per a mapes adjacents.


METAR-TAF: